Time;durP1;ratioP1;P1;durP2;ratioP2;P2;SDS_P1;SDS_P2;PMS_P1;PMS_P2;Temp;Humidity;BMP_temperature;BMP_pressure;BME280_temperature;BME280_humidity;BME280_pressure;Samples;Min_cycle;Max_cycle;Signal;HPM_P1;HPM_P2
2022/08/09 00:00:44;;;;;;;1999.90;999.90;;;;;;;20.56;51.80;95996.31;5050213;28;20036;-67
2022/08/09 00:03:10;;;;;;;1999.90;999.90;;;;;;;20.50;52.15;95996.56;5049873;28;20032;-68
2022/08/09 00:05:35;;;;;;;1999.90;999.90;;;;;;;20.08;52.01;95930.56;5050984;28;20025;-67
2022/08/09 00:08:01;;;;;;;1999.90;999.90;;;;;;;20.08;52.42;95952.97;5049869;28;20086;-67
2022/08/09 00:10:26;;;;;;;1999.90;999.90;;;;;;;19.92;52.65;95935.94;5050648;28;20422;-67
2022/08/09 00:12:51;;;;;;;1999.90;999.90;;;;;;;19.95;52.79;95937.94;5049742;28;20025;-68
2022/08/09 00:15:17;;;;;;;1999.90;999.90;;;;;;;20.12;53.07;95980.84;5050765;28;20032;-67
2022/08/09 00:17:42;;;;;;;1999.90;999.90;;;;;;;19.89;53.01;95945.50;5050649;28;20086;-67
2022/08/09 00:20:09;;;;;;;1999.90;999.90;;;;;;;20.21;53.54;96013.88;5050678;28;20111;-67
2022/08/09 00:22:34;;;;;;;1999.90;999.90;;;;;;;20.12;53.81;95999.75;5049965;28;20028;-67
2022/08/09 00:25:00;;;;;;;1999.90;999.90;;;;;;;19.63;53.90;95950.53;5050401;28;20071;-67
2022/08/09 00:27:25;;;;;;;1999.90;999.90;;;;;;;20.08;53.41;95993.47;5065815;28;20071;-68
2022/08/09 00:29:51;;;;;;;1999.90;999.90;;;;;;;20.18;53.53;96009.19;5062940;28;20039;-67
2022/08/09 00:32:16;;;;;;;1999.90;999.90;;;;;;;19.97;53.45;95976.97;5068634;28;20037;-67
2022/08/09 00:34:42;;;;;;;1999.90;999.90;;;;;;;20.01;53.38;95982.47;5057970;28;20021;-67
2022/08/09 00:37:07;;;;;;;1999.90;999.90;;;;;;;19.60;53.43;95913.44;5050421;28;20120;-67
2022/08/09 00:39:33;;;;;;;1999.90;999.90;;;;;;;19.72;53.13;95930.38;5065391;28;20063;-67
2022/08/09 00:41:58;;;;;;;1999.90;999.90;;;;;;;19.64;52.88;95904.31;5049791;28;20056;-67
2022/08/09 00:44:23;;;;;;;1999.90;999.90;;;;;;;20.30;52.96;96002.16;5049582;28;20032;-67
2022/08/09 00:46:49;;;;;;;1999.90;999.90;;;;;;;20.20;52.84;95985.31;5050176;28;20025;-67
2022/08/09 00:49:14;;;;;;;1999.90;999.90;;;;;;;20.02;53.03;95967.06;5049496;28;20025;-67
2022/08/09 00:51:40;;;;;;;1999.90;999.90;;;;;;;20.29;52.63;96006.00;5050128;28;20025;-67
2022/08/09 00:54:05;;;;;;;1999.90;999.90;;;;;;;19.91;52.59;95947.84;5049434;28;20482;-68
2022/08/09 00:56:31;;;;;;;1999.90;999.90;;;;;;;20.14;52.68;95992.09;5050003;28;20025;-67
2022/08/09 00:58:57;;;;;;;1999.90;999.90;;;;;;;19.76;52.49;95933.19;5049332;28;20473;-67
2022/08/09 01:01:28;;;;;;;1999.90;999.90;;;;;;;20.51;51.94;96017.03;5049714;28;20032;-68
2022/08/09 01:03:58;;;;;;;1999.90;999.90;;;;;;;19.84;52.47;95937.63;5048973;28;20385;-67
2022/08/09 01:06:26;;;;;;;1999.90;999.90;;;;;;;20.17;52.85;96002.22;5049607;28;20037;-67
2022/08/09 01:09:13;;;;;;;1999.90;999.90;;;;;;;20.13;52.89;95998.63;5049636;28;20020;-67
2022/08/09 01:11:51;;;;;;;1999.90;999.90;;;;;;;20.10;52.70;95993.91;5049166;28;20139;-67
2022/08/09 01:14:27;;;;;;;1999.90;999.90;;;;;;;19.97;52.62;95976.97;5048720;28;20045;-68
2022/08/09 01:17:00;;;;;;;1999.90;999.90;;;;;;;20.20;52.61;96012.31;5049730;28;20033;-69
2022/08/09 01:19:29;;;;;;;1999.90;999.90;;;;;;;20.14;52.61;96002.13;5048995;28;20021;-67
2022/08/09 01:22:13;;;;;;;1999.90;999.90;;;;;;;19.84;52.47;95955.75;5064854;28;20025;-68
2022/08/09 01:25:06;;;;;;;1999.90;999.90;;;;;;;20.05;52.44;95996.06;5049570;28;20027;-67
2022/08/09 01:27:33;;;;;;;1999.90;999.90;;;;;;;20.03;52.53;96020.72;5064479;28;20045;-68
2022/08/09 01:30:03;;;;;;;1999.90;999.90;;;;;;;19.92;52.62;95993.41;5049318;28;20576;-67
2022/08/09 01:32:34;;;;;;;1999.90;999.90;;;;;;;19.79;52.73;95972.97;5048901;28;20027;-67
2022/08/09 01:35:04;;;;;;;1999.90;999.90;;;;;;;20.04;52.87;96011.50;5050142;28;20017;-68
2022/08/09 01:37:30;;;;;;;1999.90;999.90;;;;;;;19.93;53.15;96005.78;5047968;28;20028;-67
2022/08/09 01:40:01;;;;;;;1999.90;999.90;;;;;;;19.50;53.00;95947.06;5049182;28;20033;-68
2022/08/09 01:42:28;;;;;;;1999.90;999.90;;;;;;;19.94;53.03;96003.88;5047538;28;20013;-68
2022/08/09 01:44:55;;;;;;;1999.90;999.90;;;;;;;19.92;52.91;95987.25;5062313;28;20028;-68
2022/08/09 01:47:21;;;;;;;1999.90;999.90;;;;;;;19.55;52.82;95946.84;5069541;28;20024;-67
2022/08/09 01:49:49;;;;;;;1999.90;999.90;;;;;;;19.32;52.99;95913.38;5065719;28;20119;-69
2022/08/09 01:52:17;;;;;;;1999.90;999.90;;;;;;;19.51;53.28;95951.34;5048672;28;20033;-68
2022/08/09 01:54:47;;;;;;;1999.90;999.90;;;;;;;19.65;53.25;95981.44;5049132;28;20663;-67
2022/08/09 01:57:44;;;;;;;1999.90;999.90;;;;;;;19.78;53.69;96006.50;5048968;28;20017;-68
2022/08/09 02:00:12;;;;;;;1999.90;999.90;;;;;;;19.70;53.78;96010.91;5043073;28;20040;-67
2022/08/09 02:02:47;;;;;;;1999.90;999.90;;;;;;;19.41;54.46;95979.56;5048758;28;20021;-68
2022/08/09 02:05:15;;;;;;;1999.90;999.90;;;;;;;19.51;54.64;96009.91;5052910;28;20099;-68
2022/08/09 02:07:48;;;;;;;1999.90;999.90;;;;;;;19.52;54.59;96009.56;5054579;28;20091;-68
2022/08/09 02:10:19;;;;;;;1999.90;999.90;;;;;;;19.12;54.80;95945.53;5047862;28;20033;-67
2022/08/09 02:12:47;;;;;;;1999.90;999.90;;;;;;;19.47;54.71;96005.19;5047266;28;20033;-67
2022/08/09 02:15:16;;;;;;;1999.90;999.90;;;;;;;19.37;54.66;95996.78;5049067;28;20070;-67
2022/08/09 02:17:44;;;;;;;1999.90;999.90;;;;;;;19.44;54.93;96010.47;5049209;28;20021;-68
2022/08/09 02:20:10;;;;;;;1999.90;999.90;;;;;;;18.88;55.03;95929.38;5048980;28;20025;-68
2022/08/09 02:22:44;;;;;;;1999.90;999.90;;;;;;;19.01;55.30;95957.13;5068640;28;20028;-68
2022/08/09 02:25:22;;;;;;;1999.90;999.90;;;;;;;18.88;55.30;95956.34;5069922;28;20029;-68
2022/08/09 02:27:58;;;;;;;1999.90;999.90;;;;;;;19.06;55.77;95989.25;5073023;28;20024;-68
2022/08/09 02:30:25;;;;;;;1999.90;999.90;;;;;;;19.28;55.52;96015.75;5068477;28;20036;-68
2022/08/09 02:32:53;;;;;;;1999.90;999.90;;;;;;;19.32;55.55;96040.94;5051329;28;20033;-68
2022/08/09 02:35:23;;;;;;;1999.90;999.90;;;;;;;18.96;55.67;95980.50;5052371;28;20067;-69
2022/08/09 02:37:54;;;;;;;1999.90;999.90;;;;;;;18.90;55.93;95973.75;5052528;28;20036;-68
2022/08/09 02:40:21;;;;;;;1999.90;999.90;;;;;;;18.74;56.08;95959.38;5051103;28;20036;-68
2022/08/09 02:42:50;;;;;;;1999.90;999.90;;;;;;;19.10;55.85;96017.91;5051432;28;20021;-68
2022/08/09 02:45:23;;;;;;;1999.90;999.90;;;;;;;18.80;56.06;95963.41;5061428;28;20378;-69
2022/08/09 02:47:51;;;;;;;1999.90;999.90;;;;;;;18.85;55.76;95981.28;5072334;28;20086;-69
2022/08/09 02:50:23;;;;;;;1999.90;999.90;;;;;;;19.07;55.80;96017.78;5071934;28;20078;-68
2022/08/09 02:52:53;;;;;;;;;;;;;;;19.14;56.10;96018.00;5052027;28;20036;-68
2022/08/09 02:55:22;;;;;;;1999.90;999.90;;;;;;;19.12;56.14;96025.66;5052276;28;19920;-68
2022/08/09 02:57:50;;;;;;;1999.90;999.90;;;;;;;18.50;56.28;95945.84;5052093;28;20477;-68
2022/08/09 03:00:19;;;;;;;1999.90;999.90;;;;;;;19.04;56.18;96024.66;5051827;28;20500;-69
2022/08/09 03:02:50;;;;;;;1999.90;999.90;;;;;;;18.57;56.03;95965.72;5051136;28;20025;-68
2022/08/09 03:05:17;;;;;;;1999.90;999.90;;;;;;;18.99;56.31;96024.88;5051501;28;20025;-68
2022/08/09 03:07:43;;;;;;;1999.90;999.90;;;;;;;18.85;56.44;96029.81;5051694;28;20408;-69
2022/08/09 03:10:10;;;;;;;1999.90;999.90;;;;;;;18.64;56.43;95974.03;5051575;28;20056;-68
2022/08/09 03:12:37;;;;;;;1999.90;999.90;;;;;;;18.83;56.08;96010.47;5051332;28;20388;-68
2022/08/09 03:15:05;;;;;;;1999.90;999.90;;;;;;;19.04;55.91;96019.28;5051234;28;20036;-68
2022/08/09 03:17:31;;;;;;;1999.90;999.90;;;;;;;18.99;55.63;96005.19;5051725;28;20044;-68
2022/08/09 03:19:59;;;;;;;1999.90;999.90;;;;;;;18.70;55.54;95958.47;5051670;28;20028;-68
2022/08/09 03:22:27;;;;;;;1999.90;999.90;;;;;;;18.67;55.28;95946.41;5050398;28;20067;-69
2022/08/09 03:24:53;;;;;;;1999.90;999.90;;;;;;;18.63;55.18;95928.56;5051598;28;20021;-68
2022/08/09 03:27:19;;;;;;;1999.90;999.90;;;;;;;18.70;55.26;95939.59;5051719;28;20036;-68
2022/08/09 03:29:45;;;;;;;1999.90;999.90;;;;;;;18.72;55.18;95941.97;5065808;28;20057;-68
2022/08/09 03:32:11;;;;;;;1999.90;999.90;;;;;;;18.69;55.34;95938.81;5051200;28;20035;-69
2022/08/09 03:34:37;;;;;;;1999.90;999.90;;;;;;;18.77;55.26;95963.28;5049526;28;20448;-69
2022/08/09 03:37:02;;;;;;;1999.90;999.90;;;;;;;18.78;55.20;95952.16;5050895;28;20125;-68
2022/08/09 03:39:28;;;;;;;1999.90;999.90;;;;;;;19.01;55.80;95998.38;5051126;28;20490;-68
2022/08/09 03:41:54;;;;;;;1999.90;999.90;;;;;;;19.06;55.57;95997.34;5063497;28;20116;-68
2022/08/09 03:44:21;;;;;;;1999.90;999.90;;;;;;;19.20;55.63;96028.25;5070826;28;20031;-68
2022/08/09 03:46:46;;;;;;;1999.90;999.90;;;;;;;18.97;55.55;96000.16;5069844;28;20070;-68
2022/08/09 03:49:13;;;;;;;1999.90;999.90;;;;;;;18.50;55.58;95935.84;5071140;28;20401;-68
2022/08/09 03:51:42;;;;;;;1999.90;999.90;;;;;;;18.68;55.76;95972.28;5067391;28;20056;-68
2022/08/09 03:54:09;;;;;;;1999.90;999.90;;;;;;;18.52;55.84;95965.94;5050541;28;20017;-68
2022/08/09 03:56:34;;;;;;;1999.90;999.90;;;;;;;18.81;56.21;96015.41;5050990;28;20044;-68
2022/08/09 03:59:00;;;;;;;1999.90;999.90;;;;;;;18.69;56.09;96002.72;5061338;28;20570;-68
2022/08/09 04:01:26;;;;;;;1999.90;999.90;;;;;;;18.65;56.39;96007.16;5050852;28;20052;-68
2022/08/09 04:03:53;;;;;;;1999.90;999.90;;;;;;;18.56;56.63;95993.78;5050661;28;20107;-67
2022/08/09 04:06:18;;;;;;;1999.90;999.90;;;;;;;18.48;56.51;95991.97;5050694;28;20017;-68
2022/08/09 04:08:43;;;;;;;1999.90;999.90;;;;;;;18.42;56.61;95982.50;5058140;28;20043;-71
2022/08/09 04:11:10;;;;;;;1999.90;999.90;;;;;;;18.49;56.40;95982.78;5070876;28;20346;-68
2022/08/09 04:13:35;;;;;;;1999.90;999.90;;;;;;;18.78;56.60;96038.41;5070466;28;20073;-73
2022/08/09 04:16:00;;;;;;;1999.90;999.90;;;;;;;18.41;56.37;95980.94;5071116;28;20024;-72
2022/08/09 04:18:26;;;;;;;1999.90;999.90;;;;;;;18.77;56.42;96026.06;5054024;28;20148;-73
2022/08/09 04:20:51;;;;;;;1999.90;999.90;;;;;;;18.66;56.69;96023.00;5052161;28;20296;-73
2022/08/09 04:23:17;;;;;;;1999.90;999.90;;;;;;;18.43;56.78;95984.13;5049029;28;20443;-70
2022/08/09 04:25:43;;;;;;;1999.90;999.90;;;;;;;18.55;56.62;95992.22;5051374;28;20194;-68
2022/08/09 04:28:08;;;;;;;1999.90;999.90;;;;;;;18.66;56.59;96003.34;5048828;28;20149;-70
2022/08/09 04:30:34;;;;;;;1999.90;999.90;;;;;;;18.57;56.64;95992.66;5050530;28;20066;-68
2022/08/09 04:32:59;;;;;;;1999.90;999.90;;;;;;;19.11;56.48;96059.94;5049970;28;20037;-72
2022/08/09 04:35:25;;;;;;;1999.90;999.90;;;;;;;19.11;56.40;96042.97;5050095;28;20021;-70
2022/08/09 04:37:50;;;;;;;1999.90;999.90;;;;;;;19.17;56.39;96038.94;5049746;28;20525;-68
2022/08/09 04:40:16;;;;;;;1999.90;999.90;;;;;;;19.07;55.93;95996.22;5049909;28;20033;-69
2022/08/09 04:42:42;;;;;;;1999.90;999.90;;;;;;;19.48;55.59;96035.66;5049859;28;20424;-69
2022/08/09 04:45:08;;;;;;;1999.90;999.90;;;;;;;19.36;54.82;95989.81;5049929;28;20074;-68
2022/08/09 04:47:33;;;;;;;1999.90;999.90;;;;;;;20.10;54.25;96063.34;5052023;28;20078;-67
2022/08/09 04:49:58;;;;;;;1999.90;999.90;;;;;;;20.07;53.81;96037.03;5053205;28;20049;-67
2022/08/09 04:52:26;;;;;;;1999.90;999.90;;;;;;;20.49;53.46;96059.06;5049309;28;20482;-67
2022/08/09 04:54:51;;;;;;;1999.90;999.90;;;;;;;20.67;52.72;96062.22;5049981;28;20021;-67
2022/08/09 04:57:17;;;;;;;1999.90;999.90;;;;;;;20.76;52.16;96063.66;5048990;28;20055;-66
2022/08/09 04:59:43;;;;;;;1999.90;999.90;;;;;;;20.75;51.81;96064.00;5058847;28;20039;-67
2022/08/09 05:02:08;;;;;;;1999.90;999.90;;;;;;;20.92;51.47;96073.72;5073115;28;20476;-67
2022/08/09 05:04:33;;;;;;;1999.90;999.90;;;;;;;21.07;51.16;96066.75;5071465;28;20039;-67
2022/08/09 05:06:59;;;;;;;1999.90;999.90;;;;;;;21.20;50.94;96060.13;5054246;28;20151;-67
2022/08/09 05:09:24;;;;;;;1999.90;999.90;;;;;;;21.28;50.40;96078.09;5050058;28;20045;-68
2022/08/09 05:11:50;;;;;;;1999.90;999.90;;;;;;;21.54;50.25;96070.22;5049910;28;20021;-67
2022/08/09 05:14:15;;;;;;;1999.90;999.90;;;;;;;21.56;50.04;96079.94;5049003;28;20043;-67
2022/08/09 05:16:40;;;;;;;1999.90;999.90;;;;;;;21.68;49.52;96075.19;5048525;28;20547;-71
2022/08/09 05:19:06;;;;;;;1999.90;999.90;;;;;;;21.79;49.41;96070.78;5049987;28;20025;-68
2022/08/09 05:21:31;;;;;;;1999.90;999.90;;;;;;;21.94;49.10;96079.25;5049527;28;20028;-69
2022/08/09 05:23:57;;;;;;;1999.90;999.90;;;;;;;21.95;48.89;96059.91;5049632;28;20416;-67
2022/08/09 05:26:22;;;;;;;1999.90;999.90;;;;;;;21.96;48.87;96069.63;5050033;28;20027;-66
2022/08/09 05:28:47;;;;;;;1999.90;999.90;;;;;;;22.10;48.78;96065.63;5058228;28;20481;-67
2022/08/09 05:31:13;;;;;;;1999.90;999.90;;;;;;;22.09;48.70;96073.00;5069067;28;20078;-68
2022/08/09 05:33:38;;;;;;;1999.90;999.90;;;;;;;22.14;48.40;96071.97;5068165;28;20446;-67
2022/08/09 05:36:04;;;;;;;1999.90;999.90;;;;;;;22.18;48.45;96087.16;5063799;28;20569;-67
2022/08/09 05:38:30;;;;;;;1999.90;999.90;;;;;;;22.13;48.63;96083.94;5049385;28;20443;-68
2022/08/09 05:40:55;;;;;;;1999.90;999.90;;;;;;;22.17;48.86;96088.28;5065176;28;20111;-67
2022/08/09 05:43:21;;;;;;;1999.90;999.90;;;;;;;22.04;48.80;96078.69;5050819;28;20025;-69
2022/08/09 05:45:46;;;;;;;1999.90;999.90;;;;;;;22.14;48.82;96091.69;5047870;28;20116;-69
2022/08/09 05:48:12;;;;;;;1999.90;999.90;;;;;;;22.02;48.82;96056.59;5049597;28;20035;-70
2022/08/09 05:50:40;;;;;;;1999.90;999.90;;;;;;;22.21;48.75;96080.22;5048387;28;20060;-69
2022/08/09 05:53:05;;;;;;;1999.90;999.90;;;;;;;22.20;48.79;96082.16;5048531;28;20104;-69
2022/08/09 05:55:31;;;;;;;1999.90;999.90;;;;;;;22.17;49.10;96082.88;5048098;28;20112;-72
2022/08/09 05:57:56;;;;;;;1999.90;999.90;;;;;;;22.24;48.92;96083.00;5047295;28;20025;-73
2022/08/09 06:00:22;;;;;;;1999.90;999.90;;;;;;;22.19;49.13;96077.09;5051459;28;20052;-73
2022/08/09 06:02:47;;;;;;;1999.90;999.90;;;;;;;22.26;48.78;96082.66;5053542;28;20531;-73
2022/08/09 06:05:13;;;;;;;1999.90;999.90;;;;;;;22.42;49.22;96088.81;5052741;28;20033;-73
2022/08/09 06:07:38;;;;;;;1999.90;999.90;;;;;;;22.39;48.58;96084.09;5067209;28;20450;-74
2022/08/09 06:10:04;;;;;;;1999.90;999.90;;;;;;;22.45;48.17;96087.28;5052852;28;20020;-74
2022/08/09 06:12:30;;;;;;;1999.90;999.90;;;;;;;22.60;48.27;96091.06;5050824;28;20541;-72
2022/08/09 06:14:55;;;;;;;1999.90;999.90;;;;;;;22.70;48.12;96098.63;5051812;28;20066;-78
2022/08/09 06:17:21;;;;;;;1999.90;999.90;;;;;;;22.28;48.69;96086.59;5053384;28;20090;-76
2022/08/09 06:19:46;;;;;;;1999.90;999.90;;;;;;;22.43;48.73;96086.88;5053201;28;20051;-74
2022/08/09 06:22:11;;;;;;;1999.90;999.90;;;;;;;22.74;48.13;96094.06;5051149;28;20036;-72
2022/08/09 06:24:36;;;;;;;1999.90;999.90;;;;;;;22.70;47.81;96085.84;5052970;28;20374;-71
2022/08/09 06:27:02;;;;;;;1999.90;999.90;;;;;;;22.91;47.02;96088.19;5051258;28;20484;-74
2022/08/09 06:29:27;;;;;;;1999.90;999.90;;;;;;;23.03;46.87;96087.25;5051617;28;20063;-71
2022/08/09 06:31:52;;;;;;;1999.90;999.90;;;;;;;23.04;46.86;96077.97;5052648;28;20029;-72
2022/08/09 06:34:18;;;;;;;1999.90;999.90;;;;;;;23.23;46.78;96085.25;5052134;28;20513;-72
2022/08/09 06:36:44;;;;;;;1999.90;999.90;;;;;;;23.15;46.38;96086.31;5053477;28;20029;-72
2022/08/09 06:39:11;;;;;;;1999.90;999.90;;;;;;;23.09;46.35;96083.88;5052288;28;20509;-72
2022/08/09 06:41:37;;;;;;;1999.90;999.90;;;;;;;23.34;46.18;96086.25;5050658;28;20033;-72
2022/08/09 06:44:03;;;;;;;1999.90;999.90;;;;;;;22.86;45.47;96072.19;5050730;28;20013;-73
2022/08/09 06:46:29;;;;;;;1999.90;999.90;;;;;;;22.82;46.04;96101.16;5050535;28;20032;-72
2022/08/09 06:48:54;;;;;;;1999.90;999.90;;;;;;;23.15;45.24;96095.22;5052223;28;20032;-72
2022/08/09 06:51:19;;;;;;;1999.90;999.90;;;;;;;23.23;45.43;96096.91;5052192;28;20029;-73
2022/08/09 06:53:45;;;;;;;1999.90;999.90;;;;;;;23.44;44.99;96109.25;5051943;28;20488;-74
2022/08/09 06:56:10;;;;;;;1999.90;999.90;;;;;;;23.25;44.78;96096.56;5052214;28;20017;-73
2022/08/09 06:58:37;;;;;;;1999.90;999.90;;;;;;;23.42;44.36;96106.91;5051924;28;20139;-72
2022/08/09 07:01:02;;;;;;;1999.90;999.90;;;;;;;23.66;43.88;96105.00;5051894;28;20037;-73
2022/08/09 07:03:28;;;;;;;1999.90;999.90;;;;;;;23.41;44.34;96113.50;5051713;28;20035;-73
2022/08/09 07:05:54;;;;;;;1999.90;999.90;;;;;;;23.52;43.73;96102.81;5052617;28;20082;-72
2022/08/09 07:08:19;;;;;;;1999.90;999.90;;;;;;;23.81;43.88;96102.13;5051761;28;20484;-73
2022/08/09 07:10:45;;;;;;;1999.90;999.90;;;;;;;23.85;43.23;96094.81;5070397;28;20111;-73
2022/08/09 07:13:10;;;;;;;1999.90;999.90;;;;;;;23.73;42.60;96096.94;5061118;28;20021;-73
2022/08/09 07:15:35;;;;;;;1999.90;999.90;;;;;;;24.09;42.72;96109.09;5050337;28;20064;-71
2022/08/09 07:18:01;;;;;;;1999.90;999.90;;;;;;;23.97;42.67;96112.06;5051693;28;20043;-72
2022/08/09 07:20:26;;;;;;;1999.90;999.90;;;;;;;24.15;42.29;96106.84;5051264;28;20052;-73
2022/08/09 07:22:52;;;;;;;1999.90;999.90;;;;;;;24.16;41.86;96111.13;5051530;28;20025;-73
2022/08/09 07:25:18;;;;;;;1999.90;999.90;;;;;;;23.82;41.85;96106.41;5051801;28;20037;-72
2022/08/09 07:27:43;;;;;;;1999.90;999.90;;;;;;;23.93;41.17;96108.50;5050485;28;20074;-72
2022/08/09 07:30:12;;;;;;;1999.90;999.90;;;;;;;23.85;40.81;96121.19;5050419;28;20025;-73
2022/08/09 07:32:38;;;;;;;1999.90;999.90;;;;;;;23.83;40.17;96113.41;5050650;28;20508;-72
2022/08/09 07:35:05;;;;;;;1999.90;999.90;;;;;;;23.94;40.43;96108.13;5049022;28;20119;-72
2022/08/09 07:37:31;;;;;;;1999.90;999.90;;;;;;;24.26;40.31;96110.50;5070504;28;20028;-73
2022/08/09 07:39:56;;;;;;;1999.90;999.90;;;;;;;23.62;41.47;96107.63;5067037;28;20025;-73
2022/08/09 07:42:22;;;;;;;1999.90;999.90;;;;;;;24.21;39.40;96099.94;5062849;28;20025;-74
2022/08/09 07:44:48;;;;;;;1999.90;999.90;;;;;;;24.20;39.30;96111.97;5051283;28;20025;-72
2022/08/09 07:47:13;;;;;;;1999.90;999.90;;;;;;;24.19;39.27;96111.19;5051169;28;20029;-73
2022/08/09 07:49:39;;;;;;;1999.90;999.90;;;;;;;24.43;38.84;96106.47;5051356;28;20029;-73
2022/08/09 07:52:04;;;;;;;1999.90;999.90;;;;;;;24.54;38.28;96115.56;5062054;28;20029;-74
2022/08/09 07:54:30;;;;;;;1999.90;999.90;;;;;;;24.26;38.24;96126.81;5070852;28;20017;-74
2022/08/09 07:56:56;;;;;;;1999.90;999.90;;;;;;;24.38;39.46;96124.69;5070996;28;20021;-73
2022/08/09 07:59:21;;;;;;;1999.90;999.90;;;;;;;24.85;37.75;96130.69;5069854;28;20032;-73
2022/08/09 08:01:46;;;;;;;1999.90;999.90;;;;;;;25.06;37.68;96127.41;5062238;28;20054;-72
2022/08/09 08:04:11;;;;;;;1999.90;999.90;;;;;;;24.62;36.86;96125.38;5060695;28;20398;-72
2022/08/09 08:06:37;;;;;;;1999.90;999.90;;;;;;;24.97;36.86;96124.97;5061160;28;20060;-72
2022/08/09 08:09:02;;;;;;;1999.90;999.90;;;;;;;25.01;37.14;96125.78;5049711;28;20032;-73
2022/08/09 08:11:27;;;;;;;1999.90;999.90;;;;;;;25.08;36.69;96125.09;5050569;28;20036;-74
2022/08/09 08:13:53;;;;;;;1999.90;999.90;;;;;;;25.40;36.18;96123.47;5059934;28;20028;-74
2022/08/09 08:16:18;;;;;;;1999.90;999.90;;;;;;;24.44;35.64;96127.09;5069156;28;20032;-71
2022/08/09 08:18:43;;;;;;;1999.90;999.90;;;;;;;24.45;35.93;96117.75;5069465;28;20516;-72
2022/08/09 08:21:08;;;;;;;1999.90;999.90;;;;;;;24.53;35.27;96114.78;5065273;28;20066;-72
2022/08/09 08:23:34;;;;;;;1999.90;999.90;;;;;;;24.83;35.07;96122.13;5048025;28;20780;-73
2022/08/09 08:25:59;;;;;;;1999.90;999.90;;;;;;;25.21;35.14;96126.41;5050599;28;20083;-72
2022/08/09 08:28:24;;;;;;;1999.90;999.90;;;;;;;25.41;34.74;96118.81;5050444;28;20116;-72
2022/08/09 08:30:50;;;;;;;1999.90;999.90;;;;;;;25.32;35.27;96119.13;5048591;28;20033;-72
2022/08/09 08:33:15;;;;;;;1999.90;999.90;;;;;;;24.86;36.08;96122.13;5048735;28;20025;-72
2022/08/09 08:35:40;;;;;;;1999.90;999.90;;;;;;;25.25;35.38;96129.97;5050771;28;20063;-72
2022/08/09 08:38:06;;;;;;;1999.90;999.90;;;;;;;25.47;35.55;96132.88;5066539;28;20481;-72
2022/08/09 08:40:32;;;;;;;1999.90;999.90;;;;;;;25.35;35.72;96129.28;5070403;28;20017;-73
2022/08/09 08:42:58;;;;;;;1999.90;999.90;;;;;;;24.75;36.22;96104.13;5066201;28;20021;-72
2022/08/09 08:45:38;;;;;;;1999.90;999.90;;;;;;;25.44;34.67;96125.44;5050079;28;20096;-73
2022/08/09 08:48:04;;;;;;;1999.90;999.90;;;;;;;25.33;34.87;96128.06;5050361;28;20509;-73
2022/08/09 08:50:30;;;;;;;1999.90;999.90;;;;;;;24.67;36.22;96124.22;5050042;28;20021;-73
2022/08/09 08:52:55;;;;;;;1999.90;999.90;;;;;;;25.12;35.19;96136.81;5050402;28;20025;-73
2022/08/09 08:55:21;;;;;;;1999.90;999.90;;;;;;;25.29;35.32;96128.06;5048729;28;20025;-73
2022/08/09 08:57:48;;;;;;;1999.90;999.90;;;;;;;25.33;34.30;96130.78;5048519;28;20051;-72
2022/08/09 09:00:14;;;;;;;1999.90;999.90;;;;;;;24.66;34.05;96122.69;5048688;28;20064;-73
2022/08/09 09:02:40;;;;;;;1999.90;999.90;;;;;;;25.15;35.10;96130.63;5049146;28;20442;-73
2022/08/09 09:05:07;;;;;;;1999.90;999.90;;;;;;;24.68;35.96;96129.31;5052359;28;20078;-73
2022/08/09 09:07:34;;;;;;;1999.90;999.90;;;;;;;24.82;35.83;96115.84;5048107;28;20028;-73
2022/08/09 09:10:05;;;;;;;1999.90;999.90;;;;;;;24.66;36.09;96123.47;5048520;28;20025;-73
2022/08/09 09:12:31;;;;;;;1999.90;999.90;;;;;;;24.56;35.60;96105.06;5048750;28;20021;-73
2022/08/09 09:15:01;;;;;;;1999.90;999.90;;;;;;;25.14;34.66;96112.75;5049137;28;20033;-73
2022/08/09 09:17:26;;;;;;;1999.90;999.90;;;;;;;25.36;33.92;96119.16;5049543;28;20032;-72
2022/08/09 09:19:52;;;;;;;1999.90;999.90;;;;;;;25.25;34.16;96112.84;5048236;28;20033;-73
2022/08/09 09:22:19;;;;;;;1999.90;999.90;;;;;;;24.99;34.50;96122.66;5064892;28;20051;-73
2022/08/09 09:24:50;;;;;;;1999.90;999.90;;;;;;;25.29;33.91;96130.00;5068569;28;20473;-73
2022/08/09 09:27:19;;;;;;;1999.90;999.90;;;;;;;24.98;33.64;96120.31;5069625;28;20032;-73
2022/08/09 09:29:45;;;;;;;1999.90;999.90;;;;;;;24.66;35.05;96128.91;5068429;28;20067;-73
2022/08/09 09:32:11;;;;;;;1999.90;999.90;;;;;;;25.15;34.27;96117.81;5050026;28;20139;-72
2022/08/09 09:34:38;;;;;;;1999.90;999.90;;;;;;;25.78;33.40;96126.91;5049298;28;20122;-71
2022/08/09 09:37:05;;;;;;;1999.90;999.90;;;;;;;25.39;33.41;96123.88;5059954;28;20170;-74
2022/08/09 09:39:31;;;;;;;1999.90;999.90;;;;;;;25.26;33.60;96115.19;5053181;28;20024;-73
2022/08/09 09:41:57;;;;;;;1999.90;999.90;;;;;;;25.65;32.82;96106.56;5049714;28;20028;-73
2022/08/09 09:44:26;;;;;;;1999.90;999.90;;;;;;;25.29;33.72;96119.88;5047359;28;20020;-73
2022/08/09 09:47:10;;;;;;;1999.90;999.90;;;;;;;25.50;33.12;96121.22;5055613;28;20028;-74
2022/08/09 09:49:39;;;;;;;1999.90;999.90;;;;;;;25.32;32.96;96132.72;5064722;28;20024;-73
2022/08/09 09:52:07;;;;;;;1999.90;999.90;;;;;;;25.62;32.40;96127.16;5059358;28;20127;-73
2022/08/09 09:54:39;;;;;;;1999.90;999.90;;;;;;;25.60;32.48;96137.66;5049194;28;20032;-73
2022/08/09 09:57:23;;;;;;;;;;;;;;;25.38;32.60;96133.94;5049526;28;20112;-74
2022/08/09 09:59:51;;;;;;;1999.90;999.90;;;;;;;25.92;32.35;96128.97;5054465;28;19924;-73
2022/08/09 10:02:20;;;;;;;1999.90;999.90;;;;;;;25.58;32.48;96125.56;5050594;28;20148;-73
2022/08/09 10:05:02;;;;;;;1999.90;999.90;;;;;;;25.89;31.65;96122.31;5049241;28;20065;-72
2022/08/09 10:07:28;;;;;;;1999.90;999.90;;;;;;;25.53;32.27;96112.28;5048666;28;20032;-73
2022/08/09 10:09:56;;;;;;;1999.90;999.90;;;;;;;25.40;32.52;96120.75;5048545;28;20028;-73
2022/08/09 10:12:31;;;;;;;1999.90;999.90;;;;;;;25.01;32.68;96120.34;5048079;28;20029;-74
2022/08/09 10:15:10;;;;;;;1999.90;999.90;;;;;;;25.70;31.44;96128.00;5065333;28;20028;-73
2022/08/09 10:17:37;;;;;;;1999.90;999.90;;;;;;;25.72;30.83;96125.69;5069119;28;20017;-74
2022/08/09 10:20:24;;;;;;;1999.90;999.90;;;;;;;26.37;30.84;96116.78;5053827;28;20490;-74
2022/08/09 10:22:53;;;;;;;1999.90;999.90;;;;;;;25.44;31.25;96117.25;5048373;28;20512;-73
2022/08/09 10:25:19;;;;;;;1999.90;999.90;;;;;;;25.74;31.47;96104.28;5048897;28;20107;-73
2022/08/09 10:27:45;;;;;;;1999.90;999.90;;;;;;;26.11;31.33;96106.13;5049147;28;20108;-73
2022/08/09 10:30:12;;;;;;;1999.90;999.90;;;;;;;25.54;31.24;96125.56;5047592;28;20028;-73
2022/08/09 10:32:38;;;;;;;1999.90;999.90;;;;;;;25.54;32.11;96113.84;5049590;28;20029;-73
2022/08/09 10:35:05;;;;;;;1999.90;999.90;;;;;;;26.20;31.68;96103.81;5049002;28;20033;-73
2022/08/09 10:37:31;;;;;;;1999.90;999.90;;;;;;;25.84;31.94;96098.16;5048791;28;20037;-73
2022/08/09 10:39:57;;;;;;;1999.90;999.90;;;;;;;25.58;32.19;96096.38;5048795;28;20025;-74
2022/08/09 10:42:23;;;;;;;1999.90;999.90;;;;;;;26.03;32.07;96113.47;5047217;28;20040;-73
2022/08/09 10:44:58;;;;;;;1999.90;999.90;;;;;;;26.19;32.40;96103.03;5047643;28;20014;-74
2022/08/09 10:47:38;;;;;;;1999.90;999.90;;;;;;;26.59;31.28;96111.44;5052877;28;20059;-73
2022/08/09 10:50:12;;;;;;;1999.90;999.90;;;;;;;26.20;31.85;96095.63;5052906;28;20489;-74
2022/08/09 10:53:04;;;;;;;1999.90;999.90;;;;;;;26.20;33.02;96095.63;5050438;28;20061;-72
2022/08/09 10:55:31;;;;;;;1999.90;999.90;;;;;;;26.28;32.28;96110.88;5051050;28;20031;-74